Aviation Digital Data Service (ADDS)

Output produced by METARs form (1317 UTC 19 July 2018)
found at http://www.aviationweather.gov/adds/metars/
 
METAR text: KFKL 191256Z AUTO 06004KT 10SM CLR 18/13 A3015 RMK AO2 SLP206 T01830133
Conditions at: KFKL (FRANKLIN , PA, US) observed 1256 UTC 19 July 2018
Temperature: 18.3°C (65°F)
Dewpoint: 13.3°C (56°F) [RH = 73%]
Pressure (altimeter): 30.15 inches Hg (1021.1 mb)
[Sea-level pressure: 1020.6 mb]
Winds: from the ENE (60 degrees) at 5 MPH (4 knots; 2.1 m/s)
Visibility: 10 or more miles (16+ km)
Ceiling: at least 12,000 feet AGL
Clouds: sky clear below 12,000 feet AGL
Weather: automated observation with no human augmentation;
there may or may not be significant weather present at this time

METAR text: KFKL 191156Z AUTO 08003KT 10SM CLR 16/13 A3014 RMK AO2 SLP202 T01560128 10156 20106 51003
Conditions at: KFKL (FRANKLIN , PA, US) observed 1156 UTC 19 July 2018
Temperature: 15.6°C (60°F)
Dewpoint: 12.8°C (55°F) [RH = 83%]
Pressure (altimeter): 30.14 inches Hg (1020.7 mb)
[Sea-level pressure: 1020.2 mb]
Winds: from the E (80 degrees) at 3 MPH (3 knots; 1.6 m/s)
Visibility: 10 or more miles (16+ km)
Ceiling: at least 12,000 feet AGL
Clouds: sky clear below 12,000 feet AGL
Weather: automated observation with no human augmentation;
there may or may not be significant weather present at this time

METAR text: KFKL 191112Z AUTO 07004KT 10SM SCT001 12/12 A3014 RMK AO2
Conditions at: KFKL (FRANKLIN , PA, US) observed 1112 UTC 19 July 2018
Temperature: 12.0°C (54°F)
Dewpoint: 12.0°C (54°F) [RH = 100%]
Pressure (altimeter): 30.14 inches Hg (1020.7 mb)
Winds: from the ENE (70 degrees) at 5 MPH (4 knots; 2.1 m/s)
Visibility: 10 or more miles (16+ km)
Ceiling: at least 12,000 feet AGL
Clouds: scattered clouds at 100 feet AGL
Weather: automated observation with no human augmentation;
there may or may not be significant weather present at this time

METAR text: KFKL 191107Z AUTO 07003KT 2SM BR BKN001 12/12 A3014 RMK AO2
Conditions at: KFKL (FRANKLIN , PA, US) observed 1107 UTC 19 July 2018
Temperature: 12.0°C (54°F)
Dewpoint: 12.0°C (54°F) [RH = 100%]
Pressure (altimeter): 30.14 inches Hg (1020.7 mb)
Winds: from the ENE (70 degrees) at 3 MPH (3 knots; 1.6 m/s)
Visibility: 2.00 miles (3.22 km)
Ceiling: 100 feet AGL
Clouds: broken clouds at 100 feet AGL
Weather: BR  (mist)

METAR text: KFKL 191104Z AUTO 07003KT 3/4SM BR BKN001 12/12 A3014 RMK AO2
Conditions at: KFKL (FRANKLIN , PA, US) observed 1104 UTC 19 July 2018
Temperature: 12.0°C (54°F)
Dewpoint: 12.0°C (54°F) [RH = 100%]
Pressure (altimeter): 30.14 inches Hg (1020.7 mb)
Winds: from the ENE (70 degrees) at 3 MPH (3 knots; 1.6 m/s)
Visibility: 0.75 miles (1.21 km)
Ceiling: 100 feet AGL
Clouds: broken clouds at 100 feet AGL
Weather: BR  (mist)

METAR text: KFKL 191056Z AUTO 07003KT 1/4SM FG BKN001 12/11 A3014 RMK AO2 SLP203 T01170111
Conditions at: KFKL (FRANKLIN , PA, US) observed 1056 UTC 19 July 2018
Temperature: 11.7°C (53°F)
Dewpoint: 11.1°C (52°F) [RH = 96%]
Pressure (altimeter): 30.14 inches Hg (1020.7 mb)
[Sea-level pressure: 1020.3 mb]
Winds: from the ENE (70 degrees) at 3 MPH (3 knots; 1.6 m/s)
Visibility: 0.25 miles (0.40 km)
Ceiling: 100 feet AGL
Clouds: broken clouds at 100 feet AGL
Weather: FG  (fog)

METAR text: KFKL 191048Z AUTO 05003KT 1/4SM FG VV001 11/11 A3014 RMK AO2
Conditions at: KFKL (FRANKLIN , PA, US) observed 1048 UTC 19 July 2018
Temperature: 11.0°C (52°F)
Dewpoint: 11.0°C (52°F) [RH = 100%]
Pressure (altimeter): 30.14 inches Hg (1020.7 mb)
Winds: from the NE (50 degrees) at 3 MPH (3 knots; 1.6 m/s)
Visibility: 0.25 miles (0.40 km)
Ceiling: indefinite ceiling with vertical visibility of 100 feet AGL
Clouds: obscured sky
Weather: FG  (fog)

METAR text: KFKL 191044Z AUTO 05004KT 3/4SM BR VV001 11/11 A3014 RMK AO2
Conditions at: KFKL (FRANKLIN , PA, US) observed 1044 UTC 19 July 2018
Temperature: 11.0°C (52°F)
Dewpoint: 11.0°C (52°F) [RH = 100%]
Pressure (altimeter): 30.14 inches Hg (1020.7 mb)
Winds: from the NE (50 degrees) at 5 MPH (4 knots; 2.1 m/s)
Visibility: 0.75 miles (1.21 km)
Ceiling: indefinite ceiling with vertical visibility of 100 feet AGL
Clouds: obscured sky
Weather: BR  (mist)

METAR text: KFKL 191042Z AUTO 05004KT 1 1/4SM BR FEW001 11/11 A3013 RMK AO2
Conditions at: KFKL (FRANKLIN , PA, US) observed 1042 UTC 19 July 2018
Temperature: 11.0°C (52°F)
Dewpoint: 11.0°C (52°F) [RH = 100%]
Pressure (altimeter): 30.13 inches Hg (1020.4 mb)
Winds: from the NE (50 degrees) at 5 MPH (4 knots; 2.1 m/s)
Visibility: 1.25 miles (2.01 km)
Ceiling: at least 12,000 feet AGL
Clouds: few clouds at 100 feet AGL
Weather: BR  (mist)

METAR text: KFKL 190956Z AUTO 08003KT 10SM CLR 11/11 A3014 RMK AO2 SLP201 T01110106
Conditions at: KFKL (FRANKLIN , PA, US) observed 0956 UTC 19 July 2018
Temperature: 11.1°C (52°F)
Dewpoint: 10.6°C (51°F) [RH = 97%]
Pressure (altimeter): 30.14 inches Hg (1020.7 mb)
[Sea-level pressure: 1020.1 mb]
Winds: from the E (80 degrees) at 3 MPH (3 knots; 1.6 m/s)
Visibility: 10 or more miles (16+ km)
Ceiling: at least 12,000 feet AGL
Clouds: sky clear below 12,000 feet AGL
Weather: automated observation with no human augmentation;
there may or may not be significant weather present at this time

METAR text: KFKL 190856Z AUTO 10004KT 10SM CLR 12/11 A3013 RMK AO2 SLP199 T01170111 53005
Conditions at: KFKL (FRANKLIN , PA, US) observed 0856 UTC 19 July 2018
Temperature: 11.7°C (53°F)
Dewpoint: 11.1°C (52°F) [RH = 96%]
Pressure (altimeter): 30.13 inches Hg (1020.4 mb)
[Sea-level pressure: 1019.9 mb]
Winds: from the E (100 degrees) at 5 MPH (4 knots; 2.1 m/s)
Visibility: 10 or more miles (16+ km)
Ceiling: at least 12,000 feet AGL
Clouds: sky clear below 12,000 feet AGL
Weather: automated observation with no human augmentation;
there may or may not be significant weather present at this time

METAR text: KFKL 190756Z AUTO 00000KT 10SM CLR 12/11 A3012 RMK AO2 SLP196 T01170111
Conditions at: KFKL (FRANKLIN , PA, US) observed 0756 UTC 19 July 2018
Temperature: 11.7°C (53°F)
Dewpoint: 11.1°C (52°F) [RH = 96%]
Pressure (altimeter): 30.12 inches Hg (1020.1 mb)
[Sea-level pressure: 1019.6 mb]
Winds: calm
Visibility: 10 or more miles (16+ km)
Ceiling: at least 12,000 feet AGL
Clouds: sky clear below 12,000 feet AGL
Weather: automated observation with no human augmentation;
there may or may not be significant weather present at this time

METAR text: KFKL 190656Z AUTO 00000KT 10SM CLR 12/12 A3011 RMK AO2 SLP193 T01220117
Conditions at: KFKL (FRANKLIN , PA, US) observed 0656 UTC 19 July 2018
Temperature: 12.2°C (54°F)
Dewpoint: 11.7°C (53°F) [RH = 97%]
Pressure (altimeter): 30.11 inches Hg (1019.7 mb)
[Sea-level pressure: 1019.3 mb]
Winds: calm
Visibility: 10 or more miles (16+ km)
Ceiling: at least 12,000 feet AGL
Clouds: sky clear below 12,000 feet AGL
Weather: automated observation with no human augmentation;
there may or may not be significant weather present at this time

METAR text: KFKL 190556Z AUTO 00000KT 10SM CLR 13/12 A3011 RMK AO2 SLP193 T01330117 10211 20133 51003
Conditions at: KFKL (FRANKLIN , PA, US) observed 0556 UTC 19 July 2018
Temperature: 13.3°C (56°F)
Dewpoint: 11.7°C (53°F) [RH = 90%]
Pressure (altimeter): 30.11 inches Hg (1019.7 mb)
[Sea-level pressure: 1019.3 mb]
Winds: calm
Visibility: 10 or more miles (16+ km)
Ceiling: at least 12,000 feet AGL
Clouds: sky clear below 12,000 feet AGL
Weather: automated observation with no human augmentation;
there may or may not be significant weather present at this time

METAR text: KFKL 190456Z AUTO 00000KT 10SM CLR 15/12 A3011 RMK AO2 SLP193 T01500117 402500128
Conditions at: KFKL (FRANKLIN , PA, US) observed 0456 UTC 19 July 2018
Temperature: 15.0°C (59°F)
Dewpoint: 11.7°C (53°F) [RH = 81%]
Pressure (altimeter): 30.11 inches Hg (1019.7 mb)
[Sea-level pressure: 1019.3 mb]
Winds: calm
Visibility: 10 or more miles (16+ km)
Ceiling: at least 12,000 feet AGL
Clouds: sky clear below 12,000 feet AGL
Weather: automated observation with no human augmentation;
there may or may not be significant weather present at this time

METAR text: KFKL 190356Z AUTO 00000KT 10SM CLR 16/11 A3011 RMK AO2 SLP190 T01560111
Conditions at: KFKL (FRANKLIN , PA, US) observed 0356 UTC 19 July 2018
Temperature: 15.6°C (60°F)
Dewpoint: 11.1°C (52°F) [RH = 75%]
Pressure (altimeter): 30.11 inches Hg (1019.7 mb)
[Sea-level pressure: 1019.0 mb]
Winds: calm
Visibility: 10 or more miles (16+ km)
Ceiling: at least 12,000 feet AGL
Clouds: sky clear below 12,000 feet AGL
Weather: automated observation with no human augmentation;
there may or may not be significant weather present at this time

METAR text: KFKL 190256Z AUTO 02004KT 10SM CLR 16/12 A3010 RMK AO2 SLP189 T01610117 53012
Conditions at: KFKL (FRANKLIN , PA, US) observed 0256 UTC 19 July 2018
Temperature: 16.1°C (61°F)
Dewpoint: 11.7°C (53°F) [RH = 75%]
Pressure (altimeter): 30.10 inches Hg (1019.4 mb)
[Sea-level pressure: 1018.9 mb]
Winds: from the NNE (20 degrees) at 5 MPH (4 knots; 2.1 m/s)
Visibility: 10 or more miles (16+ km)
Ceiling: at least 12,000 feet AGL
Clouds: sky clear below 12,000 feet AGL
Weather: automated observation with no human augmentation;
there may or may not be significant weather present at this time

METAR text: KFKL 190156Z AUTO 01003KT 10SM CLR 18/12 A3009 RMK AO2 SLP185 T01780122
Conditions at: KFKL (FRANKLIN , PA, US) observed 0156 UTC 19 July 2018
Temperature: 17.8°C (64°F)
Dewpoint: 12.2°C (54°F) [RH = 70%]
Pressure (altimeter): 30.09 inches Hg (1019.0 mb)
[Sea-level pressure: 1018.5 mb]
Winds: from the N (10 degrees) at 3 MPH (3 knots; 1.6 m/s)
Visibility: 10 or more miles (16+ km)
Ceiling: at least 12,000 feet AGL
Clouds: sky clear below 12,000 feet AGL
Weather: automated observation with no human augmentation;
there may or may not be significant weather present at this time

METAR text: KFKL 190056Z AUTO 36003KT 10SM CLR 19/13 A3008 RMK AO2 SLP179 T01890128
Conditions at: KFKL (FRANKLIN , PA, US) observed 0056 UTC 19 July 2018
Temperature: 18.9°C (66°F)
Dewpoint: 12.8°C (55°F) [RH = 68%]
Pressure (altimeter): 30.08 inches Hg (1018.7 mb)
[Sea-level pressure: 1017.9 mb]
Winds: from the N (360 degrees) at 3 MPH (3 knots; 1.6 m/s)
Visibility: 10 or more miles (16+ km)
Ceiling: at least 12,000 feet AGL
Clouds: sky clear below 12,000 feet AGL
Weather: automated observation with no human augmentation;
there may or may not be significant weather present at this time

METAR text: KFKL 182356Z AUTO VRB03KT 10SM CLR 21/13 A3007 RMK AO2 SLP177 T02110133 10250 20211 53002
Conditions at: KFKL (FRANKLIN , PA, US) observed 2356 UTC 18 July 2018
Temperature: 21.1°C (70°F)
Dewpoint: 13.3°C (56°F) [RH = 61%]
Pressure (altimeter): 30.07 inches Hg (1018.4 mb)
[Sea-level pressure: 1017.7 mb]
Winds: variable direction winds at 3 MPH (3 knots; 1.6 m/s)
Visibility: 10 or more miles (16+ km)
Ceiling: at least 12,000 feet AGL
Clouds: sky clear below 12,000 feet AGL
Weather: automated observation with no human augmentation;
there may or may not be significant weather present at this time

METAR text: KFKL 182256Z AUTO 32004KT 10SM CLR 22/14 A3006 RMK AO2 SLP176 T02170144
Conditions at: KFKL (FRANKLIN , PA, US) observed 2256 UTC 18 July 2018
Temperature: 21.7°C (71°F)
Dewpoint: 14.4°C (58°F) [RH = 63%]
Pressure (altimeter): 30.06 inches Hg (1018.0 mb)
[Sea-level pressure: 1017.6 mb]
Winds: from the NW (320 degrees) at 5 MPH (4 knots; 2.1 m/s)
Visibility: 10 or more miles (16+ km)
Ceiling: at least 12,000 feet AGL
Clouds: sky clear below 12,000 feet AGL
Weather: automated observation with no human augmentation;
there may or may not be significant weather present at this time

METAR text: KFKL 182156Z AUTO 32003KT 10SM FEW043 24/14 A3006 RMK AO2 SLP173 T02440139
Conditions at: KFKL (FRANKLIN , PA, US) observed 2156 UTC 18 July 2018
Temperature: 24.4°C (76°F)
Dewpoint: 13.9°C (57°F) [RH = 52%]
Pressure (altimeter): 30.06 inches Hg (1018.0 mb)
[Sea-level pressure: 1017.3 mb]
Winds: from the NW (320 degrees) at 3 MPH (3 knots; 1.6 m/s)
Visibility: 10 or more miles (16+ km)
Ceiling: at least 12,000 feet AGL
Clouds: few clouds at 4300 feet AGL
Weather: automated observation with no human augmentation;
there may or may not be significant weather present at this time

METAR text: KFKL 182056Z AUTO VRB03KT 10SM CLR 23/13 A3006 RMK AO2 SLP175 T02330128 58008
Conditions at: KFKL (FRANKLIN , PA, US) observed 2056 UTC 18 July 2018
Temperature: 23.3°C (74°F)
Dewpoint: 12.8°C (55°F) [RH = 52%]
Pressure (altimeter): 30.06 inches Hg (1018.0 mb)
[Sea-level pressure: 1017.5 mb]
Winds: variable direction winds at 3 MPH (3 knots; 1.6 m/s)
Visibility: 10 or more miles (16+ km)
Ceiling: at least 12,000 feet AGL
Clouds: sky clear below 12,000 feet AGL
Weather: automated observation with no human augmentation;
there may or may not be significant weather present at this time

METAR text: KFKL 181956Z AUTO 32004KT 10SM FEW045 SCT060 24/13 A3007 RMK AO2 SLP177 T02440133
Conditions at: KFKL (FRANKLIN , PA, US) observed 1956 UTC 18 July 2018
Temperature: 24.4°C (76°F)
Dewpoint: 13.3°C (56°F) [RH = 50%]
Pressure (altimeter): 30.07 inches Hg (1018.4 mb)
[Sea-level pressure: 1017.7 mb]
Winds: from the NW (320 degrees) at 5 MPH (4 knots; 2.1 m/s)
Visibility: 10 or more miles (16+ km)
Ceiling: at least 12,000 feet AGL
Clouds: few clouds at 4500 feet AGL
scattered clouds at 6000 feet AGL
Weather: automated observation with no human augmentation;
there may or may not be significant weather present at this time

METAR text: KFKL 181856Z AUTO VRB03KT 10SM FEW060 24/13 A3008 RMK AO2 SLP181 T02390133
Conditions at: KFKL (FRANKLIN , PA, US) observed 1856 UTC 18 July 2018
Temperature: 23.9°C (75°F)
Dewpoint: 13.3°C (56°F) [RH = 51%]
Pressure (altimeter): 30.08 inches Hg (1018.7 mb)
[Sea-level pressure: 1018.1 mb]
Winds: variable direction winds at 3 MPH (3 knots; 1.6 m/s)
Visibility: 10 or more miles (16+ km)
Ceiling: at least 12,000 feet AGL
Clouds: few clouds at 6000 feet AGL
Weather: automated observation with no human augmentation;
there may or may not be significant weather present at this time

METAR text: KFKL 181756Z AUTO VRB04KT 10SM BKN065 23/13 A3009 RMK AO2 SLP182 T02280133 10233 20161
Conditions at: KFKL (FRANKLIN , PA, US) observed 1756 UTC 18 July 2018
Temperature: 22.8°C (73°F)
Dewpoint: 13.3°C (56°F) [RH = 55%]
Pressure (altimeter): 30.09 inches Hg (1019.0 mb)
[Sea-level pressure: 1018.2 mb]
Winds: variable direction winds at 5 MPH (4 knots; 2.1 m/s)
Visibility: 10 or more miles (16+ km)
Ceiling: 6500 feet AGL
Clouds: broken clouds at 6500 feet AGL
Weather: automated observation with no human augmentation;
there may or may not be significant weather present at this time

METAR text: KFKL 181656Z AUTO 31005KT 10SM BKN038 BKN055 21/13 A3010 RMK AO2 SLP187 T02110133
Conditions at: KFKL (FRANKLIN , PA, US) observed 1656 UTC 18 July 2018
Temperature: 21.1°C (70°F)
Dewpoint: 13.3°C (56°F) [RH = 61%]
Pressure (altimeter): 30.10 inches Hg (1019.4 mb)
[Sea-level pressure: 1018.7 mb]
Winds: from the NW (310 degrees) at 6 MPH (5 knots; 2.6 m/s)
Visibility: 10 or more miles (16+ km)
Ceiling: 3800 feet AGL
Clouds: broken clouds at 3800 feet AGL
broken clouds at 5500 feet AGL
Weather: automated observation with no human augmentation;
there may or may not be significant weather present at this time

METAR text: KFKL 181556Z AUTO VRB03KT 10SM FEW055 23/13 RMK AO2 SLPNO T02280133 $
Conditions at: KFKL (FRANKLIN , PA, US) observed 1556 UTC 18 July 2018
Temperature: 22.8°C (73°F)
Dewpoint: 13.3°C (56°F) [RH = 55%]
Pressure (altimeter): missing
Winds: variable direction winds at 3 MPH (3 knots; 1.6 m/s)
Visibility: 10 or more miles (16+ km)
Ceiling: at least 12,000 feet AGL
Clouds: few clouds at 5500 feet AGL
Weather:
SOME DATA ABOVE MAY BE INACCURATE!!!
"$" is an indication the sensor requires maintenance

METAR text: KFKL 181456Z AUTO 35005KT 10SM FEW035 SCT047 21/13 A3010 RMK AO2 SLP189 T02110128 52006
Conditions at: KFKL (FRANKLIN , PA, US) observed 1456 UTC 18 July 2018
Temperature: 21.1°C (70°F)
Dewpoint: 12.8°C (55°F) [RH = 59%]
Pressure (altimeter): 30.10 inches Hg (1019.4 mb)
[Sea-level pressure: 1018.9 mb]
Winds: from the N (350 degrees) at 6 MPH (5 knots; 2.6 m/s)
Visibility: 10 or more miles (16+ km)
Ceiling: at least 12,000 feet AGL
Clouds: few clouds at 3500 feet AGL
scattered clouds at 4700 feet AGL
Weather: automated observation with no human augmentation;
there may or may not be significant weather present at this time

METAR text: KFKL 181356Z AUTO 00000KT 10SM FEW022 19/13 A3010 RMK AO2 SLP188 T01940128
Conditions at: KFKL (FRANKLIN , PA, US) observed 1356 UTC 18 July 2018
Temperature: 19.4°C (67°F)
Dewpoint: 12.8°C (55°F) [RH = 66%]
Pressure (altimeter): 30.10 inches Hg (1019.4 mb)
[Sea-level pressure: 1018.8 mb]
Winds: calm
Visibility: 10 or more miles (16+ km)
Ceiling: at least 12,000 feet AGL
Clouds: few clouds at 2200 feet AGL
Weather: automated observation with no human augmentation;
there may or may not be significant weather present at this time